Time;durP1;ratioP1;P1;durP2;ratioP2;P2;SDS_P1;SDS_P2;PMS_P1;PMS_P2;Temp;Humidity;BMP_temperature;BMP_pressure;BME280_temperature;BME280_humidity;BME280_pressure;Samples;Min_cycle;Max_cycle;Signal;HPM_P1;HPM_P2
2024/04/10 00:01:30;;;;;;;19.55;3.28;;;;;;;10.63;100.00;102124.03;5671189;26;20448;-72
2024/04/10 00:04:01;;;;;;;19.70;2.72;;;;;;;10.62;100.00;102125.03;5633478;26;19999;-73
2024/04/10 00:06:31;;;;;;;24.92;3.20;;;;;;;10.58;100.00;102128.94;5667027;26;20098;-73
2024/04/10 00:09:02;;;;;;;19.42;3.20;;;;;;;10.56;100.00;102139.00;5674833;26;20582;-72
2024/04/10 00:11:32;;;;;;;20.75;3.83;;;;;;;10.51;100.00;102143.06;5663640;26;20007;-72
2024/04/10 00:14:03;;;;;;;23.55;2.97;;;;;;;10.42;100.00;102142.03;5672016;26;20082;-72
2024/04/10 00:16:33;;;;;;;29.02;3.30;;;;;;;10.36;100.00;102139.88;5667247;26;20002;-72
2024/04/10 00:19:06;;;;;;;13.23;2.58;;;;;;;10.30;100.00;102138.59;5664136;26;20075;-72
2024/04/10 00:21:36;;;;;;;29.10;3.40;;;;;;;10.28;100.00;102143.22;5672168;26;19998;-73
2024/04/10 00:24:07;;;;;;;18.98;2.45;;;;;;;10.28;100.00;102143.22;5669103;26;19990;-72
2024/04/10 00:26:37;;;;;;;21.50;3.10;;;;;;;10.29;100.00;102146.75;5672536;26;20030;-72
2024/04/10 00:29:07;;;;;;;23.02;3.30;;;;;;;10.24;100.00;102155.22;5669373;26;20049;-72
2024/04/10 00:31:38;;;;;;;18.02;3.90;;;;;;;10.23;100.00;102153.47;5666893;26;20376;-72
2024/04/10 00:34:08;;;;;;;18.15;3.25;;;;;;;10.23;100.00;102156.13;5669470;26;20083;-73
2024/04/10 00:36:39;;;;;;;17.90;2.67;;;;;;;10.24;100.00;102155.22;5668688;26;20419;-72
2024/04/10 00:39:10;;;;;;;17.30;2.55;;;;;;;10.23;100.00;102166.88;5665048;26;19998;-72
2024/04/10 00:41:40;;;;;;;19.80;2.30;;;;;;;10.24;100.00;102163.25;5672488;26;19998;-72
2024/04/10 00:44:11;;;;;;;23.75;3.38;;;;;;;10.18;100.00;102170.94;5662331;26;20074;-72
2024/04/10 00:46:41;;;;;;;17.85;2.95;;;;;;;10.20;100.00;102166.31;5669714;26;20009;-72
2024/04/10 00:49:12;;;;;;;20.75;2.72;;;;;;;10.16;100.00;102164.84;5672897;26;19998;-72
2024/04/10 00:51:42;;;;;;;28.55;3.67;;;;;;;10.11;100.00;102168.78;5665733;26;20010;-72
2024/04/10 00:54:13;;;;;;;22.30;3.08;;;;;;;10.13;100.00;102179.38;5671199;26;19990;-72
2024/04/10 00:56:44;;;;;;;25.95;3.30;;;;;;;10.11;100.00;102179.50;5671110;26;20020;-73
2024/04/10 00:59:14;;;;;;;26.38;3.28;;;;;;;10.10;100.00;102183.16;5668311;26;20043;-72
2024/04/10 01:01:45;;;;;;;14.35;2.67;;;;;;;10.05;100.00;102185.41;5669005;26;20067;-73
2024/04/10 01:04:15;;;;;;;30.88;3.78;;;;;;;10.05;100.00;102179.19;5665919;26;20009;-72
2024/04/10 01:06:46;;;;;;;25.15;4.13;;;;;;;10.03;100.00;102184.66;5665713;26;20098;-72
2024/04/10 01:09:16;;;;;;;22.90;3.13;;;;;;;9.98;100.00;102191.38;5671863;26;20002;-73
2024/04/10 01:11:47;;;;;;;16.55;3.00;;;;;;;9.97;100.00;102187.00;5667270;26;19998;-72
2024/04/10 01:14:18;;;;;;;25.38;3.33;;;;;;;9.94;100.00;102182.78;5662166;26;19998;-73
2024/04/10 01:16:50;;;;;;;17.42;2.75;;;;;;;9.91;100.00;102193.75;5674163;26;20095;-73
2024/04/10 01:19:21;;;;;;;20.15;2.92;;;;;;;9.87;100.00;102189.63;5663406;26;20386;-73
2024/04/10 01:21:51;;;;;;;21.58;3.58;;;;;;;9.84;100.00;102195.25;5671690;26;19998;-73
2024/04/10 01:24:22;;;;;;;14.75;2.45;;;;;;;9.83;100.00;102197.06;5666780;26;20049;-73
2024/04/10 01:26:52;;;;;;;16.55;2.97;;;;;;;9.78;100.00;102201.09;5670654;26;20013;-73
2024/04/10 01:29:23;;;;;;;23.92;3.20;;;;;;;9.76;100.00;102201.25;5672750;26;20312;-73
2024/04/10 01:31:53;;;;;;;10.02;2.75;;;;;;;9.77;100.00;102210.13;5668905;26;20002;-73
2024/04/10 01:34:24;;;;;;;20.80;2.58;;;;;;;9.78;100.00;102210.00;5662900;26;20014;-73
2024/04/10 01:36:54;;;;;;;29.50;3.03;;;;;;;9.79;100.00;102213.56;5671876;26;20013;-73
2024/04/10 01:39:25;;;;;;;14.75;2.42;;;;;;;9.75;100.00;102212.94;5666698;26;19997;-72
2024/04/10 01:41:55;;;;;;;14.90;2.33;;;;;;;9.69;100.00;102210.78;5669394;26;20005;-73
2024/04/10 01:44:26;;;;;;;17.92;2.50;;;;;;;9.70;100.00;102217.00;5673338;26;20438;-73
2024/04/10 01:46:56;;;;;;;13.10;2.97;;;;;;;9.71;100.00;102219.53;5666855;26;20010;-73
2024/04/10 01:49:28;;;;;;;22.10;2.67;;;;;;;9.69;100.00;102225.97;5671837;26;19990;-72
2024/04/10 01:51:58;;;;;;;19.25;2.50;;;;;;;9.70;100.00;102228.56;5667724;26;20009;-73
2024/04/10 01:54:29;;;;;;;27.30;4.00;;;;;;;9.70;100.00;102236.59;5669678;26;20005;-72
2024/04/10 01:56:59;;;;;;;21.98;3.58;;;;;;;9.74;100.00;102238.06;5663239;26;19999;-72
2024/04/10 01:59:30;;;;;;;15.88;3.28;;;;;;;9.75;100.00;102253.16;5666671;26;20021;-73
2024/04/10 02:02:01;;;;;;;21.65;3.63;;;;;;;9.74;100.00;102248.78;5668711;26;19994;-72
2024/04/10 02:04:32;;;;;;;19.33;2.22;;;;;;;9.73;100.00;102251.56;5671047;26;20009;-72
2024/04/10 02:07:04;;;;;;;15.43;2.33;;;;;;;9.73;100.00;102260.44;5665397;26;20020;-72
2024/04/10 02:09:35;;;;;;;20.60;4.13;;;;;;;9.72;100.00;102265.94;5668687;26;20002;-72
2024/04/10 02:12:05;;;;;;;15.10;2.40;;;;;;;9.69;100.00;102269.75;5665367;26;20079;-72
2024/04/10 02:14:36;;;;;;;13.05;3.47;;;;;;;9.67;100.00;102273.50;5666707;26;19998;-72
2024/04/10 02:17:07;;;;;;;15.85;2.40;;;;;;;9.64;100.00;102276.41;5673685;26;19998;-73
2024/04/10 02:19:37;;;;;;;22.95;3.22;;;;;;;9.58;100.00;102278.63;5663674;26;20003;-72
2024/04/10 02:22:08;;;;;;;13.25;2.45;;;;;;;9.56;100.00;102275.22;5669996;26;20038;-73
2024/04/10 02:24:39;;;;;;;17.33;2.67;;;;;;;9.54;100.00;102282.56;5661217;26;19999;-72
2024/04/10 02:27:10;;;;;;;13.98;2.35;;;;;;;9.52;100.00;102287.16;5665941;26;20335;-72
2024/04/10 02:29:41;;;;;;;17.35;2.88;;;;;;;9.50;100.00;102290.97;5666961;26;19994;-73
2024/04/10 02:32:11;;;;;;;22.60;3.15;;;;;;;9.47;100.00;102292.06;5666359;26;20034;-73
2024/04/10 02:34:42;;;;;;;17.92;3.13;;;;;;;9.46;100.00;102295.72;5666312;26;20002;-72
2024/04/10 02:37:13;;;;;;;15.88;3.85;;;;;;;9.44;100.00;102299.47;5668076;26;20009;-72
2024/04/10 02:39:43;;;;;;;20.80;2.67;;;;;;;9.39;100.00;102305.22;5670953;26;20013;-73
2024/04/10 02:42:14;;;;;;;26.45;3.67;;;;;;;9.40;100.00;102312.28;5664492;26;19994;-73
2024/04/10 02:44:50;;;;;;;10.43;2.00;;;;;;;9.39;100.00;102313.25;5670082;26;20021;-72
2024/04/10 02:47:21;;;;;;;14.48;3.10;;;;;;;9.38;100.00;102314.22;5652478;26;20340;-73
2024/04/10 02:49:52;;;;;;;20.17;2.92;;;;;;;9.37;100.00;102325.91;5663828;26;20070;-72
2024/04/10 02:52:22;;;;;;;16.65;3.00;;;;;;;9.37;100.00;102322.38;5672197;26;19998;-72
2024/04/10 02:54:53;;;;;;;16.40;2.55;;;;;;;9.35;100.00;102325.19;5662792;26;19998;-73
2024/04/10 02:57:23;;;;;;;17.35;3.67;;;;;;;9.33;100.00;102327.13;5669582;26;20016;-73
2024/04/10 02:59:54;;;;;;;18.05;3.03;;;;;;;9.31;100.00;102329.94;5656919;26;20083;-73
2024/04/10 03:02:24;;;;;;;23.13;3.00;;;;;;;9.30;100.00;102333.59;5669200;26;20467;-72
2024/04/10 03:04:55;;;;;;;16.60;2.50;;;;;;;9.30;100.00;102343.44;5652009;26;20076;-72
2024/04/10 03:07:25;;;;;;;17.33;2.75;;;;;;;9.31;100.00;102353.19;5666035;26;20005;-73
2024/04/10 03:09:56;;;;;;;15.07;2.55;;;;;;;9.30;100.00;102360.38;5669168;26;20352;-73
2024/04/10 03:12:26;;;;;;;21.90;2.53;;;;;;;9.31;100.00;102353.19;5664891;26;20002;-72
2024/04/10 03:14:57;;;;;;;14.50;2.22;;;;;;;9.31;100.00;102358.53;5669600;26;19998;-73
2024/04/10 03:17:27;;;;;;;21.25;3.78;;;;;;;9.30;100.00;102355.00;5663858;26;20014;-72
2024/04/10 03:19:59;;;;;;;17.08;2.53;;;;;;;9.29;100.00;102363.19;5658562;26;20078;-72
2024/04/10 03:22:29;;;;;;;19.85;2.58;;;;;;;9.32;100.00;102371.81;5662224;26;20010;-73
2024/04/10 03:25:00;;;;;;;14.35;2.42;;;;;;;9.32;100.00;102370.94;5665640;26;20026;-72
2024/04/10 03:27:30;;;;;;;14.45;2.75;;;;;;;9.33;100.00;102375.34;5669658;26;20009;-73
2024/04/10 03:30:01;;;;;;;8.95;2.60;;;;;;;9.32;100.00;102370.94;5665167;26;20495;-73
2024/04/10 03:32:31;;;;;;;20.75;3.55;;;;;;;9.30;100.00;102380.94;5670357;26;20386;-72
2024/04/10 03:35:03;;;;;;;16.35;2.53;;;;;;;9.26;100.00;102379.47;5675203;26;20010;-72
2024/04/10 03:37:34;;;;;;;16.42;2.63;;;;;;;9.21;100.00;102385.19;5674447;26;20013;-72
2024/04/10 03:40:06;;;;;;;12.77;2.70;;;;;;;9.20;100.00;102396.88;5671664;26;20007;-73
2024/04/10 03:42:37;;;;;;;18.25;2.72;;;;;;;9.18;100.00;102387.25;5662201;26;20039;-72
2024/04/10 03:45:08;;;;;;;13.35;2.38;;;;;;;9.17;100.00;102397.09;5670918;26;20005;-73
2024/04/10 03:47:39;;;;;;;16.83;2.90;;;;;;;9.14;100.00;102404.53;5666848;26;20409;-72
2024/04/10 03:50:10;;;;;;;12.93;2.83;;;;;;;9.09;100.00;102410.25;5667105;26;20013;-73
2024/04/10 03:52:40;;;;;;;13.23;2.83;;;;;;;9.07;100.00;102414.84;5667545;26;20008;-72
2024/04/10 03:55:11;;;;;;;9.88;2.05;;;;;;;9.07;100.00;102415.72;5670413;26;20006;-72
2024/04/10 03:57:42;;;;;;;11.65;2.55;;;;;;;9.12;100.00;102417.19;5670013;26;20432;-72
2024/04/10 04:00:13;;;;;;;18.55;2.83;;;;;;;9.15;100.00;102425.00;5666772;26;19998;-73
2024/04/10 04:02:44;;;;;;;13.93;3.00;;;;;;;9.14;100.00;102425.97;5671171;26;20344;-73
2024/04/10 04:05:14;;;;;;;11.02;2.40;;;;;;;9.14;100.00;102434.00;5664619;26;20022;-73
2024/04/10 04:07:45;;;;;;;16.70;3.22;;;;;;;9.14;100.00;102436.69;5668667;26;20021;-73
2024/04/10 04:10:15;;;;;;;15.18;2.72;;;;;;;9.13;100.00;102435.78;5667104;26;20013;-73
2024/04/10 04:12:46;;;;;;;11.77;2.17;;;;;;;9.15;100.00;102447.25;5664282;26;20002;-73
2024/04/10 04:15:16;;;;;;;12.55;2.55;;;;;;;9.13;100.00;102443.81;5672270;26;19994;-73
2024/04/10 04:17:47;;;;;;;15.27;3.33;;;;;;;9.12;100.00;102452.00;5673031;26;20556;-72
2024/04/10 04:20:17;;;;;;;20.92;2.42;;;;;;;9.11;100.00;102447.63;5668033;26;20061;-73
2024/04/10 04:22:48;;;;;;;12.32;2.13;;;;;;;9.07;100.00;102463.03;5670299;26;20006;-72
2024/04/10 04:25:18;;;;;;;21.80;3.35;;;;;;;9.01;100.00;102466.19;5652846;26;20086;-73
2024/04/10 04:27:49;;;;;;;15.80;4.13;;;;;;;8.96;100.00;102466.53;5667709;26;20021;-72
2024/04/10 04:30:19;;;;;;;11.52;2.38;;;;;;;8.95;100.00;102470.19;5665034;26;19994;-73
2024/04/10 04:32:50;;;;;;;17.38;2.88;;;;;;;8.94;100.00;102479.19;5667220;26;20013;-72
2024/04/10 04:35:20;;;;;;;16.27;3.72;;;;;;;8.93;100.00;102477.47;5673225;26;20028;-73
2024/04/10 04:37:57;;;;;;;23.52;3.15;;;;;;;8.92;100.00;102483.78;5663559;26;20005;-73
2024/04/10 04:40:30;;;;;;;16.52;3.20;;;;;;;8.93;100.00;102492.69;5666840;26;20022;-73
2024/04/10 04:43:08;;;;;;;12.27;2.45;;;;;;;8.93;100.00;102495.34;5666151;26;19999;-73
2024/04/10 04:45:40;;;;;;;16.65;2.92;;;;;;;8.92;100.00;102502.53;5667471;26;20434;-73
2024/04/10 04:48:10;;;;;;;14.05;2.35;;;;;;;8.88;100.00;102498.38;5672013;26;20002;-73
2024/04/10 04:50:41;;;;;;;17.25;3.05;;;;;;;8.84;100.00;102501.44;5662137;26;20018;-73
2024/04/10 04:53:13;;;;;;;21.60;2.90;;;;;;;8.80;100.00;102512.34;5670574;26;19990;-73
2024/04/10 04:55:44;;;;;;;22.92;3.38;;;;;;;8.79;100.00;102515.16;5667853;26;19994;-73
2024/04/10 04:58:14;;;;;;;12.82;2.58;;;;;;;8.80;100.00;102511.50;5664369;26;19994;-73
2024/04/10 05:00:45;;;;;;;11.32;2.70;;;;;;;8.81;100.00;102516.72;5666694;26;20006;-73
2024/04/10 05:04:54;;;;;;;12.68;3.03;;;;;;;8.78;100.00;102519.63;5668573;26;19997;-73
2024/04/10 05:06:06;;;;;;;32.22;4.68;;;;;;;8.77;100.00;102536.66;5669372;26;19999;-73
2024/04/10 05:08:37;;;;;;;12.30;2.83;;;;;;;8.78;100.00;102534.81;5665349;26;20070;-74
2024/04/10 05:11:08;;;;;;;17.13;3.13;;;;;;;8.80;100.00;102540.94;5667556;26;20082;-74
2024/04/10 05:13:39;;;;;;;11.32;2.13;;;;;;;8.79;100.00;102544.59;5655600;26;20043;-75
2024/04/10 05:16:10;;;;;;;9.93;3.20;;;;;;;8.82;100.00;102557.72;5671413;26;19998;-73
2024/04/10 05:18:41;;;;;;;15.60;3.05;;;;;;;8.82;100.00;102563.94;5664299;26;19991;-73
2024/04/10 05:21:11;;;;;;;18.85;3.35;;;;;;;8.85;100.00;102560.19;5663305;26;20448;-74
2024/04/10 05:23:42;;;;;;;16.25;2.45;;;;;;;8.89;100.00;102569.69;5669246;26;19998;-73
2024/04/10 05:26:13;;;;;;;21.60;3.20;;;;;;;8.96;100.00;102562.91;5673806;26;19998;-74
2024/04/10 05:28:43;;;;;;;14.82;2.58;;;;;;;9.00;100.00;102572.44;5666560;26;19994;-74
2024/04/10 05:31:14;;;;;;;20.23;4.63;;;;;;;8.98;100.00;102566.31;5671362;26;19990;-74
2024/04/10 05:33:44;;;;;;;13.80;2.53;;;;;;;9.00;100.00;102572.44;5664759;26;20584;-74
2024/04/10 05:36:15;;;;;;;20.55;3.30;;;;;;;9.03;100.00;102588.25;5670286;26;20013;-74
2024/04/10 05:38:45;;;;;;;17.27;3.33;;;;;;;9.06;100.00;102589.84;5663473;26;19994;-75
2024/04/10 05:41:16;;;;;;;14.82;3.05;;;;;;;9.06;100.00;102593.38;5672707;26;20012;-73
2024/04/10 05:43:47;;;;;;;15.18;3.28;;;;;;;9.11;100.00;102595.72;5659744;26;20013;-74
2024/04/10 05:46:18;;;;;;;14.52;3.15;;;;;;;9.19;100.00;102609.41;5666170;26;20066;-74
2024/04/10 05:48:48;;;;;;;24.17;4.25;;;;;;;9.22;100.00;102606.47;5665343;26;20007;-75
2024/04/10 05:51:18;;;;;;;24.77;5.75;;;;;;;9.32;100.00;102612.00;5653606;26;19998;-74
2024/04/10 05:53:49;;;;;;;20.50;4.72;;;;;;;9.57;100.00;102619.91;5665769;26;20486;-74
2024/04/10 05:56:20;;;;;;;20.33;3.92;;;;;;;10.05;100.00;102617.09;5671059;26;19995;-74
2024/04/10 05:58:50;;;;;;;29.60;4.32;;;;;;;10.66;100.00;102614.09;5658524;26;20006;-74
2024/04/10 06:01:21;;;;;;;20.63;3.25;;;;;;;11.27;100.00;102629.69;5671415;26;20051;-74
2024/04/10 06:03:52;;;;;;;21.83;4.43;;;;;;;11.71;100.00;102627.81;5657508;26;20014;-74
2024/04/10 06:06:22;;;;;;;28.00;8.90;;;;;;;12.12;100.00;102635.03;5667939;26;20010;-74
2024/04/10 06:10:08;;;;;;;19.00;5.75;;;;;;;12.60;100.00;102637.97;5692123;25;20353;-74
2024/04/10 06:12:39;;;;;;;21.20;4.78;;;;;;;13.10;100.00;102656.81;5691637;25;20416;-71
2024/04/10 06:15:09;;;;;;;28.33;5.85;;;;;;;13.27;100.00;102658.00;5692905;25;19998;-71
2024/04/10 06:17:40;;;;;;;29.63;8.75;;;;;;;13.58;100.00;102664.13;5665023;26;20002;-71
2024/04/10 06:20:11;;;;;;;28.23;5.95;;;;;;;13.89;100.00;102663.97;5652322;26;20013;-72
2024/04/10 06:22:41;;;;;;;19.65;5.18;;;;;;;13.99;100.00;102657.56;5654306;26;20014;-71
2024/04/10 06:25:12;;;;;;;14.95;4.43;;;;;;;14.09;100.00;102670.19;5654803;26;19998;-72
2024/04/10 06:27:42;;;;;;;15.55;5.35;;;;;;;14.07;100.00;102670.34;5652833;26;20067;-74
2024/04/10 06:30:13;;;;;;;18.70;5.57;;;;;;;14.38;100.00;102679.06;5653799;26;20086;-71
2024/04/10 06:32:43;;;;;;;17.30;6.93;;;;;;;14.63;100.00;102679.44;5653533;26;20013;-72
2024/04/10 06:35:14;;;;;;;14.07;3.88;;;;;;;14.78;100.00;102677.94;5654272;26;20003;-72
2024/04/10 06:37:45;;;;;;;19.95;7.93;;;;;;;15.02;100.00;102675.53;5651817;26;20013;-73
2024/04/10 06:40:15;;;;;;;27.70;8.43;;;;;;;15.03;100.00;102674.53;5653269;26;20335;-73
2024/04/10 06:42:46;;;;;;;11.43;3.15;;;;;;;15.28;100.00;102693.75;5653272;26;19990;-74
2024/04/10 06:45:16;;;;;;;16.33;5.10;;;;;;;15.34;100.00;102697.69;5654770;26;19998;-73
2024/04/10 06:47:47;;;;;;;17.92;6.03;;;;;;;15.48;100.00;102702.56;5652302;26;20092;-73
2024/04/10 06:50:17;;;;;;;12.52;4.13;;;;;;;15.66;100.00;102708.00;5653058;26;20013;-73
2024/04/10 06:52:47;;;;;;;16.77;5.82;;;;;;;15.68;100.00;102704.16;5651395;26;19999;-73
2024/04/10 06:55:18;;;;;;;14.98;4.18;;;;;;;15.64;100.00;102699.22;5654238;26;19999;-72
2024/04/10 06:57:49;;;;;;;20.13;4.22;;;;;;;15.87;100.00;102705.84;5651938;26;20339;-73
2024/04/10 07:00:21;;;;;;;16.38;4.53;;;;;;;15.94;100.00;102706.06;5637578;26;20027;-73
2024/04/10 07:02:52;;;;;;;13.85;3.00;;;;;;;16.35;100.00;102699.09;5641681;26;20011;-73
2024/04/10 07:05:23;;;;;;;19.27;2.83;;;;;;;16.34;100.00;102705.53;5640142;26;20014;-73
2024/04/10 07:07:54;;;;;;;15.70;4.20;;;;;;;16.53;100.00;102705.31;5640054;26;20449;-73
2024/04/10 07:10:28;;;;;;;13.55;2.90;;;;;;;16.60;100.00;102710.09;5638346;26;20383;-74
2024/04/10 07:13:01;;;;;;;12.13;3.38;;;;;;;16.78;100.00;102716.31;5647183;26;19998;-74
2024/04/10 07:15:32;;;;;;;27.23;4.32;;;;;;;16.91;100.00;102721.28;5649999;26;20019;-75
2024/04/10 07:18:04;;;;;;;9.25;2.47;;;;;;;16.99;100.00;102716.75;5645766;26;20010;-74
2024/04/10 07:20:36;;;;;;;9.75;2.97;;;;;;;17.12;100.00;102735.28;5632587;26;19995;-74
2024/04/10 07:23:08;;;;;;;11.15;2.55;;;;;;;17.41;100.00;102742.13;5633516;26;20006;-74
2024/04/10 07:25:41;;;;;;;11.02;2.33;;;;;;;17.38;100.00;102750.63;5634351;26;20349;-74
2024/04/10 07:28:12;;;;;;;9.70;2.42;;;;;;;17.15;100.00;102756.63;5629864;26;20015;-75
2024/04/10 07:30:51;;;;;;;24.58;2.88;;;;;;;17.50;100.00;102762.84;5632191;26;20026;-74
2024/04/10 07:33:23;;;;;;;11.75;2.60;;;;;;;17.50;100.00;102766.41;5633551;26;20010;-74
2024/04/10 07:35:55;;;;;;;15.88;2.40;;;;;;;17.77;100.00;102762.63;5627411;26;19995;-74
2024/04/10 07:38:27;;;;;;;13.00;2.92;;;;;;;17.86;100.00;102766.19;5633485;26;20027;-74
2024/04/10 07:40:58;;;;;;;13.13;2.45;;;;;;;17.69;100.00;102767.16;5630918;26;20349;-75
2024/04/10 07:43:28;;;;;;;12.05;2.92;;;;;;;17.64;100.00;102766.81;5634228;26;20010;-74
2024/04/10 07:46:06;;;;;;;8.45;2.72;;;;;;;18.13;100.00;102770.47;5634021;26;20007;-73
2024/04/10 07:48:38;;;;;;;10.82;2.50;;;;;;;18.11;100.00;102773.31;5633082;26;19995;-74
2024/04/10 07:51:10;;;;;;;12.35;2.58;;;;;;;17.85;100.00;102772.63;5632176;26;20076;-74
2024/04/10 07:53:42;;;;;;;13.73;2.80;;;;;;;17.88;100.00;102777.75;5632297;26;20006;-74
2024/04/10 07:56:13;;;;;;;10.43;2.72;;;;;;;17.92;100.00;102783.66;5633808;26;20121;-74
2024/04/10 07:58:43;;;;;;;10.95;2.67;;;;;;;17.88;100.00;102780.44;5631337;26;19995;-74
2024/04/10 08:01:14;;;;;;;13.10;2.83;;;;;;;18.20;100.00;102782.31;5631874;26;20003;-75
2024/04/10 08:03:45;;;;;;;12.07;2.13;;;;;;;18.52;100.00;102786.88;5632550;26;20349;-74
2024/04/10 08:06:15;;;;;;;11.07;2.33;;;;;;;18.32;100.00;102786.41;5632962;26;20003;-74
2024/04/10 08:08:46;;;;;;;11.07;2.28;;;;;;;18.42;100.00;102790.81;5630010;26;20007;-75
2024/04/10 08:11:18;;;;;;;10.25;2.20;;;;;;;18.35;100.00;102785.22;5631705;26;20031;-74
2024/04/10 08:13:49;;;;;;;11.63;1.98;;;;;;;18.76;100.00;102794.19;5632240;26;20738;-75
2024/04/10 08:16:20;;;;;;;11.15;2.42;;;;;;;18.92;100.00;102797.88;5630620;26;20071;-74
2024/04/10 08:18:50;;;;;;;10.93;2.35;;;;;;;19.05;100.00;102809.06;5629697;26;20071;-75
2024/04/10 08:21:21;;;;;;;9.43;2.03;;;;;;;19.05;100.00;102796.31;5632142;26;20429;-75
2024/04/10 08:23:51;;;;;;;17.00;2.45;;;;;;;19.14;100.00;102808.03;5631164;26;19999;-74
2024/04/10 08:26:22;;;;;;;7.80;1.98;;;;;;;19.24;100.00;102800.50;5631582;26;20604;-74
2024/04/10 08:28:53;;;;;;;9.60;2.08;;;;;;;19.15;100.00;102807.84;5629236;26;20030;-74
2024/04/10 08:31:24;;;;;;;11.00;1.95;;;;;;;18.87;100.00;102812.84;5629717;26;19999;-74
2024/04/10 08:33:55;;;;;;;8.23;2.15;;;;;;;18.88;100.00;102814.56;5630469;26;20012;-75
2024/04/10 08:36:27;;;;;;;8.63;2.00;;;;;;;18.99;100.00;102820.66;5632800;26;20408;-74
2024/04/10 08:38:58;;;;;;;6.30;1.65;;;;;;;19.34;100.00;102817.47;5630567;26;22472;-74
2024/04/10 08:41:28;;;;;;;8.90;1.75;;;;;;;19.39;100.00;102816.94;5632097;26;20002;-74
2024/04/10 08:43:59;;;;;;;13.50;2.05;;;;;;;19.40;100.00;102824.09;5630446;26;20021;-75
2024/04/10 08:46:31;;;;;;;6.90;1.77;;;;;;;18.98;100.00;102824.41;5633411;26;20083;-74
2024/04/10 08:49:02;;;;;;;8.93;1.88;;;;;;;19.03;100.00;102825.59;5630606;26;19999;-75
2024/04/10 08:51:33;;;;;;;14.27;1.98;;;;;;;19.48;100.00;102842.22;5631605;26;20003;-75
2024/04/10 08:54:06;;;;;;;7.90;1.92;;;;;;;19.42;100.00;102828.31;5630538;26;20310;-75
2024/04/10 08:56:37;;;;;;;6.03;1.55;;;;;;;19.67;100.00;102825.50;5632039;26;20014;-72
2024/04/10 08:59:07;;;;;;;9.07;2.20;;;;;;;20.07;100.00;102842.63;5629480;26;20624;-75
2024/04/10 09:01:38;;;;;;;12.35;1.88;;;;;;;19.84;100.00;102843.47;5630078;26;19999;-74
2024/04/10 09:04:10;;;;;;;9.02;1.75;;;;;;;19.79;100.00;102843.16;5631100;26;20007;-74
2024/04/10 09:06:41;;;;;;;16.10;1.98;;;;;;;19.67;100.00;102842.69;5632129;26;19999;-73
2024/04/10 09:09:13;;;;;;;7.03;2.08;;;;;;;19.66;100.00;102834.69;5629420;26;20010;-74
2024/04/10 09:11:51;;;;;;;8.32;1.73;;;;;;;19.51;100.00;102842.75;5631029;26;19998;-74
2024/04/10 09:14:21;;;;;;;8.73;1.95;;;;;;;18.88;100.00;102852.63;5621729;26;20013;-74
2024/04/10 09:16:52;;;;;;;7.10;1.90;;;;;;;18.84;100.00;102848.56;5631257;26;20006;-75
2024/04/10 09:19:22;;;;;;;10.90;2.08;;;;;;;18.77;100.00;102839.38;5630143;26;20019;-74
2024/04/10 09:22:00;;;;;;;6.05;1.77;;;;;;;19.03;100.00;102858.22;5629993;26;20526;-75
2024/04/10 09:24:30;;;;;;;9.35;1.60;;;;;;;19.05;100.00;102868.91;5631361;26;20009;-75
2024/04/10 09:27:09;;;;;;;5.90;1.48;;;;;;;19.51;100.00;102859.06;5631997;26;20444;-75
2024/04/10 09:29:39;;;;;;;11.20;1.80;;;;;;;20.08;100.00;102863.38;5630858;26;19994;-75
2024/04/10 09:32:11;;;;;;;4.93;1.23;;;;;;;19.78;100.00;102865.09;5631223;26;20352;-75
2024/04/10 09:34:43;;;;;;;8.60;1.40;;;;;;;19.79;97.61;102862.22;5631962;26;20340;-74
2024/04/10 09:37:15;;;;;;;9.20;1.67;;;;;;;20.07;92.23;102861.69;5631589;26;19995;-75
2024/04/10 09:39:45;;;;;;;9.02;1.60;;;;;;;20.10;96.07;102858.63;5623516;26;20906;-75
2024/04/10 09:42:26;;;;;;;8.35;2.08;;;;;;;19.62;97.51;102866.03;5629894;26;19995;-74
2024/04/10 09:45:08;;;;;;;5.50;1.48;;;;;;;19.77;96.13;102875.13;5628285;26;20010;-75
2024/04/10 09:47:43;;;;;;;8.27;1.40;;;;;;;19.32;93.08;102875.81;5631334;26;20076;-74
2024/04/10 09:50:17;;;;;;;10.40;1.70;;;;;;;19.16;100.00;102874.00;5629522;26;20005;-76
2024/04/10 09:52:51;;;;;;;9.13;1.48;;;;;;;19.24;91.96;102878.56;5630520;26;20256;-75
2024/04/10 09:55:21;;;;;;;4.57;1.55;;;;;;;19.34;96.87;102871.91;5628615;26;20014;-75
2024/04/10 09:57:53;;;;;;;8.05;1.35;;;;;;;18.93;93.01;102870.31;5628783;26;20003;-74
2024/04/10 10:00:24;;;;;;;6.90;1.40;;;;;;;18.85;92.31;102876.59;5617988;26;20011;-76
2024/04/10 10:03:03;;;;;;;5.40;1.33;;;;;;;18.37;91.46;102872.84;5615582;26;20532;-75
2024/04/10 10:05:34;;;;;;;2.67;1.00;;;;;;;17.90;89.91;102875.31;5609973;26;20776;-74
2024/04/10 10:08:06;;;;;;;5.13;1.17;;;;;;;17.72;90.69;102875.38;5624324;26;20113;-76
2024/04/10 10:10:43;;;;;;;8.23;1.92;;;;;;;17.96;93.32;102871.91;5625935;26;20075;-75
2024/04/10 10:13:14;;;;;;;4.25;1.10;;;;;;;17.91;93.32;102869.69;5629526;26;20010;-74
2024/04/10 10:15:55;;;;;;;9.20;1.30;;;;;;;17.13;93.48;102875.28;5630859;26;20456;-74
2024/04/10 10:18:27;;;;;;;7.47;1.77;;;;;;;16.99;96.96;102878.59;5617215;26;20014;-73
2024/04/10 10:21:01;;;;;;;11.23;1.75;;;;;;;17.14;99.87;102868.84;5628241;26;20003;-75
2024/04/10 10:23:33;;;;;;;7.07;1.30;;;;;;;17.38;97.21;102880.84;5630828;26;20003;-73
2024/04/10 10:26:05;;;;;;;4.40;0.75;;;;;;;17.44;95.37;102878.31;5630412;26;20079;-73
2024/04/10 10:28:36;;;;;;;9.13;1.25;;;;;;;17.68;95.75;102882.16;5629015;26;20003;-74
2024/04/10 10:31:11;;;;;;;3.22;0.85;;;;;;;17.75;91.02;102889.50;5629312;26;20710;-74
2024/04/10 10:33:43;;;;;;;7.27;1.10;;;;;;;17.50;89.76;102884.97;5629843;26;20359;-73
2024/04/10 10:36:14;;;;;;;3.42;0.98;;;;;;;17.27;89.96;102888.25;5630022;26;19999;-75
2024/04/10 10:38:44;;;;;;;7.97;1.35;;;;;;;17.29;92.16;102880.78;5629364;26;20344;-73
2024/04/10 10:41:16;;;;;;;7.20;1.20;;;;;;;17.51;87.76;102879.38;5629219;26;19998;-74
2024/04/10 10:43:46;;;;;;;7.00;1.67;;;;;;;17.59;88.01;102887.56;5631080;26;20006;-73
2024/04/10 10:46:17;;;;;;;4.13;1.17;;;;;;;17.69;89.90;102895.56;5630000;26;20034;-73
2024/04/10 10:48:48;;;;;;;8.20;1.00;;;;;;;17.93;88.33;102883.97;5629304;26;19999;-74
2024/04/10 10:51:19;;;;;;;5.72;1.02;;;;;;;17.78;88.88;102896.50;5628898;26;20002;-74
2024/04/10 10:53:51;;;;;;;4.50;0.98;;;;;;;18.21;87.91;102897.28;5630458;26;20009;-74
2024/04/10 10:56:24;;;;;;;8.40;1.23;;;;;;;18.49;91.40;102895.09;5620373;26;20022;-74
2024/04/10 10:59:06;;;;;;;3.53;1.20;;;;;;;18.81;84.43;102894.28;5623322;26;20043;-74
2024/04/10 11:01:37;;;;;;;6.78;0.90;;;;;;;18.84;86.51;102891.22;5632432;26;20010;-74
2024/04/10 11:04:14;;;;;;;4.95;0.90;;;;;;;18.95;86.61;102892.75;5633524;26;19995;-75
2024/04/10 11:06:45;;;;;;;4.53;1.20;;;;;;;18.98;82.60;102900.56;5634052;26;20003;-74
2024/04/10 11:09:15;;;;;;;4.38;0.88;;;;;;;19.07;82.46;102894.06;5631661;26;20022;-75
2024/04/10 11:11:46;;;;;;;6.20;1.17;;;;;;;19.17;84.55;102894.72;5632122;26;20434;-77
2024/04/10 11:14:23;;;;;;;5.10;0.90;;;;;;;19.09;85.77;102901.03;5634098;26;20087;-74
2024/04/10 11:17:00;;;;;;;2.53;0.88;;;;;;;19.14;83.77;102895.94;5633182;26;19999;-74
2024/04/10 11:19:33;;;;;;;5.50;1.13;;;;;;;19.24;86.49;102894.91;5631552;26;20011;-74
2024/04/10 11:22:16;;;;;;;6.40;1.50;;;;;;;19.23;82.52;102894.06;5632479;26;20003;-75
2024/04/10 11:24:46;;;;;;;8.93;1.08;;;;;;;19.12;82.02;102887.09;5632309;26;20003;-76
2024/04/10 11:27:19;;;;;;;7.38;1.20;;;;;;;19.09;79.32;102895.59;5632688;26;19999;-75
2024/04/10 11:29:50;;;;;;;5.80;1.20;;;;;;;19.06;79.55;102887.78;5630697;26;20013;-75
2024/04/10 11:32:21;;;;;;;5.40;1.10;;;;;;;19.17;81.75;102894.72;5632035;26;20050;-75
2024/04/10 11:34:51;;;;;;;5.70;0.88;;;;;;;18.91;80.92;102894.94;5633235;26;19999;-75
2024/04/10 11:37:22;;;;;;;4.63;1.05;;;;;;;19.06;79.85;102898.66;5633630;26;20002;-75